Chester Depot, Vermont
Current Conditions -  °F | °C
As of 4:45 AM on Sunday 26 Oct 2014 (Local Time) from KVSF Reporting Station
Haze Haze  
Wind Chill:   Ceiling: 4600
Heat Index:   Visibility: 1.5mi
Dew Point:   Wind: 0mph
Humidity: 100%   Direction: NA
Pressure: 29.44"   Gusts: NA
Location:  43.36°N, 72.57°W
Report Text: KVSF 260845Z AUTO 00000KT 1 1/2SM BR FEW002 BKN046 OVC065 04/04 A2944 RMK AO2 VIS 3/4V2 1/2 T00390039
Loading
Personal Weather Stations






























Interactive Weather Map
Tropical Storm Tracking
New forecast layout! Learn more

10-Day Weather Forecast

Advertisements
Track Severe Weather on mobile